Sisquoc, California
Current Conditions -  °F | °C
As of 1:12 AM on Saturday 25 Oct 2014 (Local Time) from KSMX Reporting Station
Scattered Clouds Scattered Clouds  
Wind Chill: 62°   Ceiling: Unl
Heat Index: 62°   Visibility: 9mi
Dew Point: 56°   Wind: 3mph
Humidity: 80%   Direction: 90°E
Pressure: 30.03"   Gusts: NA
Location:  34.9452°N, 120.389°W
Report Text: KSMX 250812Z AUTO 09003KT 9SM SCT014 17/13 A3003 RMK AO2 T01670133
Loading
Personal Weather Stations






























Interactive Weather Map
Tropical Storm Tracking
New forecast layout! Learn more

10-Day Weather Forecast

Advertisements
Track Severe Weather on mobile